Time;durP1;ratioP1;P1;durP2;ratioP2;P2;SDS_P1;SDS_P2;PMS_P1;PMS_P2;Temp;Humidity;BMP_temperature;BMP_pressure;BME280_temperature;BME280_humidity;BME280_pressure;Samples;Min_cycle;Max_cycle;Signal;HPM_P1;HPM_P2
2022/02/26 10:10:48;;;;;;;56.17;20.73;;;;;;;;;;5090872;27;20609;-70
2022/02/26 10:13:15;;;;;;;56.47;19.05;;;;;;;;;;5090817;28;20572;-70
2022/02/26 10:15:42;;;;;;;52.17;21.77;;;;;;;;;;5090806;28;20183;-71
2022/02/26 10:18:12;;;;;;;69.30;20.73;;;;;;;;;;5090722;28;20174;-71
2022/02/26 10:20:44;;;;;;;56.03;19.95;;;;;;;;;;5089441;28;20262;-71
2022/02/26 10:23:12;;;;;;;46.58;19.77;;;;;;;;;;5090641;28;20171;-71
2022/02/26 10:25:38;;;;;;;44.17;17.48;;;;;;;;;;5090592;28;20210;-71
2022/02/26 10:28:04;;;;;;;46.00;19.05;;;;;;;;;;5090555;28;20645;-71
2022/02/26 10:30:34;;;;;;;48.55;17.83;;;;;;;;;;5089219;28;20742;-71
2022/02/26 10:33:03;;;;;;;39.72;18.25;;;;;;;;;;5090436;28;20218;-71
2022/02/26 10:35:42;;;;;;;43.95;17.85;;;;;;;;;;5090316;28;20263;-71
2022/02/26 10:38:27;;;;;;;38.78;15.75;;;;;;;;;;5090400;28;20581;-71
2022/02/26 10:40:57;;;;;;;41.38;16.75;;;;;;;;;;5090340;28;20163;-71
2022/02/26 10:43:42;;;;;;;35.72;16.13;;;;;;;;;;5088926;28;20222;-71
2022/02/26 10:46:22;;;;;;;34.92;15.00;;;;;;;;;;5090297;28;20171;-71
2022/02/26 10:48:50;;;;;;;38.42;15.63;;;;;;;;;;5090221;28;20198;-71
2022/02/26 10:51:16;;;;;;;31.60;15.98;;;;;;;;;;5090228;28;20172;-71
2022/02/26 10:53:42;;;;;;;34.35;15.85;;;;;;;;;;5090096;28;20172;-71
2022/02/26 10:56:10;;;;;;;45.97;16.88;;;;;;;;;;5090071;28;20171;-71
2022/02/26 10:58:36;;;;;;;33.67;15.23;;;;;;;;;;5089978;28;20167;-71
2022/02/26 11:01:07;;;;;;;42.20;15.90;;;;;;;;;;5088679;28;20183;-71
2022/02/26 11:03:34;;;;;;;37.90;15.40;;;;;;;;;;5089901;28;20200;-71
2022/02/26 11:06:00;;;;;;;44.35;16.45;;;;;;;;;;5089825;28;20175;-70
2022/02/26 11:08:26;;;;;;;30.08;11.80;;;;;;;;;;5089416;28;20540;-70
2022/02/26 11:10:53;;;;;;;32.60;15.00;;;;;;;;;;5089843;28;20172;-71
2022/02/26 11:13:23;;;;;;;39.08;15.20;;;;;;;;;;5089771;28;20217;-71
2022/02/26 11:15:50;;;;;;;26.60;13.15;;;;;;;;;;5089674;28;20209;-71
2022/02/26 11:18:18;;;;;;;20.95;10.52;;;;;;;;;;5089638;28;20673;-71
2022/02/26 11:20:44;;;;;;;23.75;11.02;;;;;;;;;;5084065;28;20183;-71
2022/02/26 11:23:12;;;;;;;23.33;9.90;;;;;;;;;;5076074;28;20173;-71
2022/02/26 11:25:38;;;;;;;25.67;11.07;;;;;;;;;;5075990;28;20247;-71
2022/02/26 11:28:04;;;;;;;22.05;10.40;;;;;;;;;;5075958;28;20176;-71
2022/02/26 11:30:33;;;;;;;21.17;9.50;;;;;;;;;;5074514;28;20557;-71
2022/02/26 11:33:01;;;;;;;30.95;9.32;;;;;;;;;;5075883;28;20186;-71
2022/02/26 11:35:27;;;;;;;22.38;4.78;;;;;;;;;;5074415;28;20192;-71
2022/02/26 11:37:56;;;;;;;18.00;4.55;;;;;;;;;;5075777;28;20555;-71
2022/02/26 11:40:22;;;;;;;13.40;4.70;;;;;;;;;;5075819;28;20160;-71
2022/02/26 11:42:48;;;;;;;13.25;4.28;;;;;;;;;;5075720;28;20531;-71
2022/02/26 11:45:26;;;;;;;15.82;4.10;;;;;;;;;;5075649;28;20176;-71
2022/02/26 11:47:57;;;;;;;12.50;4.32;;;;;;;;;;5075548;28;20229;-71
2022/02/26 11:50:24;;;;;;;9.23;3.08;;;;;;;;;;5075503;28;20196;-71
2022/02/26 11:52:50;;;;;;;11.40;4.15;;;;;;;;;;5075511;28;20709;-71
2022/02/26 11:55:37;;;;;;;13.43;3.58;;;2.50;99.90;;;;;;5075566;28;20244;-71
2022/02/26 11:58:02;;;;;;;14.15;4.57;;;4.80;99.90;;;;;;5074177;28;20238;-71
2022/02/26 12:00:48;;;;;;;16.23;3.70;;;4.90;99.90;;;;;;5075334;28;20633;-71
2022/02/26 12:03:52;;;;;;;10.27;3.78;;;5.00;99.90;;;;;;5075323;28;20169;-71
2022/02/26 12:06:20;;;;;;;7.32;3.42;;;5.00;99.90;;;;;;5075112;28;20646;-71
2022/02/26 12:08:53;;;;;;;11.93;3.78;;;5.10;99.90;;;;;;5074815;28;20686;-71
2022/02/26 12:11:21;;;;;;;12.98;3.88;;;5.10;99.90;;;;;;5075208;28;20168;-71
2022/02/26 12:13:49;;;;;;;12.95;3.35;;;5.10;99.90;;;;;;5073840;28;20303;-71
2022/02/26 12:16:25;;;;;;;13.07;3.40;;;5.10;99.90;;;;;;5075074;28;20533;-71
2022/02/26 12:19:20;;;;;;;23.50;3.72;;;5.20;99.90;;;;;;5074994;28;20179;-71
2022/02/26 12:21:52;;;;;;;15.55;4.25;;;5.20;99.90;;;;;;5073767;28;20651;-71
2022/02/26 12:24:20;;;;;;;13.13;3.65;;;5.30;99.90;;;;;;5074883;28;20259;-71
2022/02/26 12:27:08;;;;;;;27.58;6.50;;;5.30;99.90;;;;;;5074892;28;20181;-72
2022/02/26 12:29:40;;;;;;;16.42;5.68;;;5.40;99.90;;;;;;5074629;28;20206;-73
2022/02/26 12:32:11;;;;;;;19.35;5.20;;;5.30;99.90;;;;;;5074047;28;20172;-71
2022/02/26 12:34:47;;;;;;;13.45;3.22;;;5.20;99.90;;;;;;5074582;28;20188;-71
2022/02/26 12:37:26;;;;;;;18.42;5.78;;;5.20;99.90;;;;;;5073253;28;20172;-71
2022/02/26 12:39:57;;;;;;;12.23;4.72;;;5.20;99.90;;;;;;5074547;28;20637;-71
2022/02/26 12:42:25;;;;;;;11.02;3.83;;;5.20;99.90;;;;;;5074693;28;20263;-71
2022/02/26 12:44:57;;;;;;;11.00;3.28;;;5.40;99.90;;;;;;5074436;28;20187;-69
2022/02/26 12:47:24;;;;;;;8.95;4.90;;;5.50;99.90;;;;;;5073382;28;20195;-70
2022/02/26 12:49:50;;;;;;;5.70;4.15;;;5.60;99.90;;;;;;5074345;28;20207;-69
2022/02/26 12:52:16;;;;;;;5.25;3.22;;;5.60;99.90;;;;;;5074297;28;20168;-69
2022/02/26 12:54:43;;;;;;;9.80;3.50;;;5.60;99.90;;;;;;5074249;28;20496;-69
2022/02/26 12:57:10;;;;;;;14.55;3.92;;;5.70;99.90;;;;;;5074213;28;20671;-72
2022/02/26 12:59:36;;;;;;;9.80;3.28;;;5.80;99.90;;;;;;5075119;28;20219;-71
2022/02/26 13:02:04;;;;;;;10.70;3.58;;;5.80;99.90;;;;;;5074233;28;20176;-71
2022/02/26 13:04:34;;;;;;;10.80;3.88;;;5.90;99.90;;;;;;5074083;28;20259;-71
2022/02/26 13:07:12;;;;;;;12.95;3.92;;;6.00;99.90;;;;;;5073996;28;20175;-71
2022/02/26 13:09:53;;;;;;;14.55;3.92;;;6.10;99.90;;;;;;5073810;28;20228;-71
2022/02/26 13:12:27;;;;;;;7.97;3.20;;;6.20;99.90;;;;;;5073947;28;20165;-71
2022/02/26 13:14:58;;;;;;;9.38;3.83;;;6.20;99.90;;;;;;5073934;28;20553;-71
2022/02/26 13:17:30;;;;;;;8.68;3.90;;;6.30;99.90;;;;;;5073797;28;20221;-71
2022/02/26 13:19:56;;;;;;;18.33;5.38;;;6.50;99.90;;;;;;5073890;28;20164;-71
2022/02/26 13:22:22;;;;;;;11.10;3.47;;;6.60;99.90;;;;;;5073731;28;20658;-72
2022/02/26 13:24:50;;;;;;;12.80;4.18;;;6.70;99.90;;;;;;5073751;28;20168;-71
2022/02/26 13:27:21;;;;;;;17.30;4.72;;;6.70;99.90;;;;;;5073757;28;20290;-71
2022/02/26 13:29:49;;;;;;;9.70;3.65;;;6.70;99.90;;;;;;5073510;28;20198;-71
2022/02/26 13:32:25;;;;;;;10.90;3.97;;;6.80;99.90;;;;;;5073603;28;20172;-71
2022/02/26 13:34:56;;;;;;;13.55;3.67;;;6.90;99.90;;;;;;5073531;28;20656;-71
2022/02/26 13:37:27;;;;;;;11.48;3.83;;;6.90;99.90;;;;;;5073572;28;20196;-71
2022/02/26 13:39:53;;;;;;;13.32;3.92;;;6.90;99.90;;;;;;5073568;28;20297;-72
2022/02/26 13:42:21;;;;;;;15.93;3.83;;;6.90;99.90;;;;;;5073429;28;20169;-71
2022/02/26 13:44:55;;;;;;;8.73;3.25;;;6.80;99.90;;;;;;5073253;28;20256;-71
2022/02/26 13:47:23;;;;;;;10.50;3.55;;;6.80;99.90;;;;;;5073425;28;20634;-71
2022/02/26 13:49:55;;;;;;;6.60;3.22;;;6.90;99.90;;;;;;5073518;28;20204;-71
2022/02/26 13:52:22;;;;;;;8.32;3.78;;;7.10;99.90;;;;;;5073446;28;20171;-72
2022/02/26 13:54:50;;;;;;;9.07;4.00;;;7.30;99.90;;;;;;5073225;28;20164;-71
2022/02/26 13:57:28;;;;;;;13.70;3.47;;;7.50;99.90;;;;;;5073414;28;20192;-71
2022/02/26 14:00:11;;;;;;;5.75;3.35;;;7.70;99.90;;;;;;5073191;28;20233;-71
2022/02/26 14:02:38;;;;;;;7.50;3.63;;;7.90;99.90;;;;;;5073323;28;20179;-71
2022/02/26 14:05:07;;;;;;;9.40;3.53;;;8.10;99.90;;;;;;5073229;28;20531;-71
2022/02/26 14:07:38;;;;;;;8.80;3.05;;;8.30;99.90;;;;;;5073154;28;20274;-71
2022/02/26 14:10:06;;;;;;;6.45;3.67;;;8.40;99.90;;;;;;5072970;28;20254;-71
2022/02/26 14:12:31;;;;;;;11.43;3.15;;;8.50;99.90;;;;;;5073201;28;20164;-71
2022/02/26 14:14:58;;;;;;;6.35;3.40;;;8.70;99.90;;;;;;5073138;28;20172;-71
2022/02/26 14:17:27;;;;;;;13.38;2.90;;;8.80;99.90;;;;;;5073185;28;20164;-72
2022/02/26 14:19:56;;;;;;;11.13;3.03;;;8.90;99.90;;;;;;5073054;28;20171;-72
2022/02/26 14:22:29;;;;;;;11.40;2.85;;;9.10;99.90;;;;;;5073095;28;20168;-71
2022/02/26 14:24:56;;;;;;;6.20;2.92;;;9.20;99.90;;;;;;5073136;28;20180;-71
2022/02/26 14:27:24;;;;;;;12.23;3.15;;;9.30;99.90;;;;;;5071826;28;20175;-72
2022/02/26 14:30:04;;;;;;;8.10;2.80;;;9.30;99.90;;;;;;5072775;28;20793;-71
2022/02/26 14:32:37;;;;;;;13.38;2.85;;;9.20;99.90;;;;;;5073023;28;20172;-71
2022/02/26 14:35:05;;;;;;;7.05;3.08;;;9.40;99.90;;;;;;5072912;28;20184;-72
2022/02/26 14:37:31;;;;;;;14.40;3.28;;;9.40;99.90;;;;;;5072963;28;20169;-71
2022/02/26 14:39:57;;;;;;;7.47;2.97;;;9.40;99.90;;;;;;5072912;28;20173;-72
2022/02/26 14:42:25;;;;;;;10.00;3.30;;;9.30;99.90;;;;;;5072886;28;20168;-71
2022/02/26 14:44:50;;;;;;;7.43;2.63;;;9.30;99.90;;;;;;5072832;28;20180;-71
2022/02/26 14:47:16;;;;;;;9.15;3.15;;;9.20;99.90;;;;;;5072958;28;20285;-72
2022/02/26 14:49:41;;;;;;;11.18;2.53;;;9.20;99.90;;;;;;5072689;28;20294;-72
2022/02/26 14:52:08;;;;;;;5.70;2.90;;;9.20;99.90;;;;;;5071593;28;20184;-72
2022/02/26 14:54:33;;;;;;;10.27;2.50;;;9.20;99.90;;;;;;5072712;28;20301;-71
2022/02/26 14:56:59;;;;;;;5.63;2.88;;;9.20;99.90;;;;;;5075440;28;20168;-72
2022/02/26 14:59:24;;;;;;;17.15;4.05;;;10.20;99.90;;;;;;5076440;28;20191;-72
2022/02/26 15:01:50;;;;;;;7.35;2.17;;;9.20;99.90;;;;;;5076371;28;20164;-72
2022/02/26 15:04:16;;;;;;;16.00;2.55;;;9.10;99.90;;;;;;5076388;28;20169;-72
2022/02/26 15:06:42;;;;;;;7.43;2.60;;;9.10;99.90;;;;;;5076288;28;20168;-72
2022/02/26 15:09:07;;;;;;;12.55;2.92;;;9.20;99.90;;;;;;5076095;28;20212;-72
2022/02/26 15:11:34;;;;;;;6.82;2.40;;;9.80;99.90;;;;;;5076327;28;20174;-72
2022/02/26 15:14:00;;;;;;;18.80;3.03;;;9.20;99.90;;;;;;5076191;28;20208;-72
2022/02/26 15:16:26;;;;;;;7.35;2.58;;;9.20;99.90;;;;;;5076195;28;20168;-72
2022/02/26 15:18:52;;;;;;;6.72;2.50;;;9.20;99.90;;;;;;5076166;28;20176;-72
2022/02/26 15:21:19;;;;;;;15.43;2.88;;;9.20;99.90;;;;;;5076093;28;20172;-72
2022/02/26 15:23:46;;;;;;;6.55;3.15;;;9.10;99.90;;;;;;5076283;28;20175;-71
2022/02/26 15:26:12;;;;;;;7.90;2.15;;;9.00;99.90;;;;;;5076344;28;20255;-72
2022/02/26 15:28:38;;;;;;;9.32;2.97;;;9.00;99.90;;;;;;5075114;28;20538;-72
2022/02/26 15:31:04;;;;;;;7.80;2.97;;;9.00;99.90;;;;;;5075970;28;20165;-72
2022/02/26 15:33:29;;;;;;;10.15;2.67;;;9.10;99.90;;;;;;5075884;28;20528;-71
2022/02/26 15:35:55;;;;;;;10.02;3.00;;;9.10;99.90;;;;;;5075769;28;20242;-71
2022/02/26 15:38:23;;;;;;;10.00;2.40;;;9.10;99.90;;;;;;5075826;28;20196;-71
2022/02/26 15:40:49;;;;;;;15.93;2.75;;;9.20;99.90;;;;;;5075815;28;20168;-72
2022/02/26 15:43:16;;;;;;;3.97;2.65;;;9.20;99.90;;;;;;5074441;28;20179;-71
2022/02/26 15:45:41;;;;;;;6.13;3.13;;;9.10;99.90;;;;;;5075682;28;20164;-72
2022/02/26 15:48:07;;;;;;;8.27;2.85;;;9.00;99.90;;;;;;5075539;28;20187;-72
2022/02/26 15:50:34;;;;;;;6.50;2.28;;;9.00;99.90;;;;;;5074326;28;20225;-72
2022/02/26 15:53:00;;;;;;;8.02;2.42;;;8.90;99.90;;;;;;5075766;28;20164;-72
2022/02/26 15:55:26;;;;;;;9.48;3.33;;;8.90;99.90;;;;;;5075478;28;20187;-71
2022/02/26 15:57:52;;;;;;;4.47;2.47;;;8.80;99.90;;;;;;5075459;28;20165;-72
2022/02/26 16:00:18;;;;;;;7.70;3.50;;;8.80;99.90;;;;;;5074023;28;20204;-71
2022/02/26 16:02:44;;;;;;;8.05;2.78;;;8.70;99.90;;;;;;5075721;28;20243;-71
2022/02/26 16:05:10;;;;;;;9.88;3.28;;;8.60;99.90;;;;;;5075325;28;20222;-71
2022/02/26 16:07:36;;;;;;;7.47;2.90;;;8.60;99.90;;;;;;5075128;28;20168;-71
2022/02/26 16:10:02;;;;;;;16.20;2.75;;;8.50;99.90;;;;;;5075107;28;20220;-71
2022/02/26 16:12:28;;;;;;;12.80;2.33;;;8.50;99.90;;;;;;5075218;28;20172;-71
2022/02/26 16:14:54;;;;;;;13.07;2.90;;;8.50;99.90;;;;;;5075194;28;20266;-72
2022/02/26 16:17:20;;;;;;;6.78;2.15;;;8.50;99.90;;;;;;5075248;28;20184;-71
2022/02/26 16:19:45;;;;;;;4.05;2.20;;;8.50;99.90;;;;;;5073768;28;20204;-72
2022/02/26 16:22:11;;;;;;;12.02;2.53;;;8.50;99.90;;;;;;5074980;28;20585;-72
2022/02/26 16:24:37;;;;;;;7.90;2.45;;;8.50;99.90;;;;;;5074964;28;20176;-71
2022/02/26 16:27:03;;;;;;;15.88;3.33;;;8.40;99.90;;;;;;5074889;28;20184;-72
2022/02/26 16:29:29;;;;;;;5.18;2.22;;;8.40;99.90;;;;;;5074637;28;20192;-71
2022/02/26 16:31:54;;;;;;;9.35;2.78;;;8.40;99.90;;;;;;5074783;28;20243;-72
2022/02/26 16:34:21;;;;;;;6.90;2.53;;;8.30;99.90;;;;;;5074670;28;20630;-71
2022/02/26 16:36:47;;;;;;;9.23;2.58;;;8.20;99.90;;;;;;5074788;28;20173;-71
2022/02/26 16:39:13;;;;;;;10.93;3.30;;;8.10;99.90;;;;;;5074540;28;20192;-71
2022/02/26 16:41:38;;;;;;;6.53;2.70;;;8.00;99.90;;;;;;5073190;28;20648;-72
2022/02/26 16:44:04;;;;;;;4.25;2.22;;;7.90;99.90;;;;;;5072757;28;20168;-72
2022/02/26 16:46:30;;;;;;;5.28;2.30;;;7.70;99.90;;;;;;5073629;28;20168;-72
2022/02/26 16:48:55;;;;;;;7.10;3.08;;;7.50;99.90;;;;;;5074135;28;20196;-72
2022/02/26 16:51:21;;;;;;;14.98;3.00;;;7.30;99.90;;;;;;5074330;28;20172;-72
2022/02/26 16:53:47;;;;;;;7.45;2.88;;;7.10;99.90;;;;;;5074377;28;20251;-72
2022/02/26 16:56:12;;;;;;;5.45;2.58;;;6.90;99.90;;;;;;5074176;28;20199;-72
2022/02/26 16:58:38;;;;;;;13.20;5.22;;;6.70;99.90;;;;;;5072867;28;20180;-72
2022/02/26 17:01:04;;;;;;;21.05;7.18;;;6.50;99.90;;;;;;5073590;28;20243;-72
2022/02/26 17:03:29;;;;;;;13.82;4.85;;;6.30;99.90;;;;;;5073694;28;20164;-72
2022/02/26 17:05:57;;;;;;;6.18;4.15;;;6.00;99.90;;;;;;5074127;28;20218;-72
2022/02/26 17:08:24;;;;;;;16.73;4.57;;;5.80;99.90;;;;;;5073992;28;20562;-73
2022/02/26 17:10:50;;;;;;;8.95;3.67;;;5.70;99.90;;;;;;5073947;28;20251;-72
2022/02/26 17:13:15;;;;;;;7.82;4.55;;;5.60;99.90;;;;;;5073877;28;20172;-72
